Time;durP1;ratioP1;P1;durP2;ratioP2;P2;SDS_P1;SDS_P2;PMS_P1;PMS_P2;Temp;Humidity;BMP_temperature;BMP_pressure;BME280_temperature;BME280_humidity;BME280_pressure;Samples;Min_cycle;Max_cycle;Signal;HPM_P1;HPM_P2
2022/06/05 06:33:44;;;;;;;5.95;5.65;;;20.90;99.90;;;;;;5070746;28;20881;-73
2022/06/05 06:36:11;;;;;;;6.28;5.90;;;19.90;99.90;;;;;;5070621;28;20199;-71
2022/06/05 06:38:37;;;;;;;6.03;5.60;;;19.90;99.90;;;;;;5070671;28;20200;-71
2022/06/05 06:41:09;;;;;;;5.90;5.60;;;19.80;99.90;;;;;;5070612;28;20170;-71
2022/06/05 06:43:35;;;;;;;5.70;5.40;;;19.80;99.90;;;;;;5070564;28;20168;-71
2022/06/05 06:46:02;;;;;;;6.50;6.10;;;19.80;99.90;;;;;;5070514;28;20198;-71
2022/06/05 06:48:28;;;;;;;6.60;6.00;;;19.80;99.90;;;;;;5070457;28;20164;-71
2022/06/05 06:50:58;;;;;;;5.95;5.53;;;19.80;99.90;;;;;;5070381;28;20172;-71
2022/06/05 06:53:25;;;;;;;6.05;5.65;;;19.80;99.90;;;;;;5070339;28;20580;-71
2022/06/05 06:55:51;;;;;;;6.05;5.60;;;19.80;99.90;;;;;;5070363;28;20168;-71
2022/06/05 06:58:17;;;;;;;6.45;5.72;;;19.80;99.90;;;;;;5070230;28;20163;-71
2022/06/05 07:00:43;;;;;;;6.60;6.13;;;19.80;99.90;;;;;;5070175;28;20310;-71
2022/06/05 07:03:09;;;;;;;5.72;5.32;;;19.90;99.90;;;;;;5070097;28;20254;-71
2022/06/05 07:05:35;;;;;;;6.53;6.00;;;20.00;99.90;;;;;;5068888;28;20550;-71
2022/06/05 07:08:01;;;;;;;6.28;5.93;;;20.00;99.90;;;;;;5070085;28;20164;-71
2022/06/05 07:10:27;;;;;;;5.63;5.32;;;20.10;99.90;;;;;;5069900;28;20172;-71
2022/06/05 07:12:53;;;;;;;5.95;5.65;;;20.10;99.90;;;;;;5069919;28;20680;-71
2022/06/05 07:15:20;;;;;;;5.75;5.35;;;20.20;99.90;;;;;;5069880;28;20171;-71
2022/06/05 07:17:46;;;;;;;5.88;5.38;;;20.20;99.90;;;;;;5069802;28;20175;-71
2022/06/05 07:20:13;;;;;;;6.07;5.68;;;20.30;99.90;;;;;;5069785;28;20241;-71
2022/06/05 07:22:39;;;;;;;6.10;5.70;;;20.20;99.90;;;;;;5069767;28;20172;-71
2022/06/05 07:25:05;;;;;;;6.22;5.93;;;20.20;99.90;;;;;;5069699;28;20234;-71
2022/06/05 07:27:31;;;;;;;6.40;5.85;;;20.30;99.90;;;;;;5069605;28;20183;-71
2022/06/05 07:29:57;;;;;;;6.25;5.63;;;20.40;99.90;;;;;;5069589;28;20255;-71
2022/06/05 07:32:22;;;;;;;6.93;6.30;;;20.40;99.90;;;;;;5069191;28;20215;-71
2022/06/05 07:34:48;;;;;;;6.15;5.75;;;20.50;99.90;;;;;;5069477;28;20175;-71
2022/06/05 07:37:15;;;;;;;6.97;6.10;;;20.50;99.90;;;;;;5068140;28;20199;-71
2022/06/05 07:39:42;;;;;;;5.78;5.47;;;20.60;99.90;;;;;;5069405;28;20168;-71
2022/06/05 07:42:08;;;;;;;6.32;5.93;;;20.70;99.90;;;;;;5069261;28;20636;-70
2022/06/05 07:44:36;;;;;;;6.20;5.88;;;20.70;99.90;;;;;;5058811;28;20184;-71
2022/06/05 07:47:08;;;;;;;5.72;5.43;;;20.90;99.90;;;;;;5056082;28;20221;-70
2022/06/05 07:49:38;;;;;;;6.40;6.10;;;20.90;99.90;;;;;;5055989;28;20176;-71
2022/06/05 07:54:48;;;;;;;5.60;5.30;;;21.20;99.90;;;;;;5056325;28;20230;-71
2022/06/05 07:57:18;;;;;;;6.28;5.82;;;21.30;99.90;;;;;;5055883;28;20169;-71
2022/06/05 07:59:46;;;;;;;5.68;5.28;;;21.40;99.90;;;;;;5055879;28;20149;-72
2022/06/05 08:02:23;;;;;;;5.85;5.35;;;21.50;99.90;;;;;;5055823;28;20173;-71
2022/06/05 08:04:50;;;;;;;5.38;5.07;;;21.60;99.90;;;;;;5054501;28;20168;-71
2022/06/05 08:07:23;;;;;;;5.47;5.18;;;21.80;99.90;;;;;;5055668;28;20676;-71
2022/06/05 08:09:52;;;;;;;8.23;5.50;;;21.80;99.90;;;;;;5055597;28;20625;-71
2022/06/05 08:12:19;;;;;;;5.38;5.07;;;21.90;99.90;;;;;;5055490;28;20204;-71
2022/06/05 08:14:49;;;;;;;6.03;5.57;;;22.00;99.90;;;;;;5055581;28;20226;-71
2022/06/05 08:17:20;;;;;;;5.30;5.03;;;22.10;99.90;;;;;;5055421;28;20197;-71
2022/06/05 08:19:46;;;;;;;5.43;4.93;;;22.10;99.90;;;;;;5054140;28;20626;-71
2022/06/05 08:22:15;;;;;;;5.20;4.90;;;22.20;99.90;;;;;;5055342;28;20168;-71
2022/06/05 08:24:40;;;;;;;5.38;5.18;;;22.20;99.90;;;;;;5055874;28;20161;-72
2022/06/05 08:27:09;;;;;;;5.18;4.88;;;22.20;99.90;;;;;;5055256;28;20222;-71
2022/06/05 08:29:34;;;;;;;7.63;5.63;;;22.20;99.90;;;;;;5055250;28;20183;-71
2022/06/05 08:32:00;;;;;;;5.07;4.88;;;22.20;99.90;;;;;;5055073;28;20558;-71
2022/06/05 08:34:25;;;;;;;5.55;5.25;;;22.20;99.90;;;;;;5055161;28;20294;-71
2022/06/05 08:41:26;;;;;;;5.32;5.03;;;22.30;99.90;;;;;;5055041;28;20168;-71
2022/06/05 08:42:33;;;;;;;5.35;5.05;;;22.10;99.90;;;;;;5054859;28;20637;-71
2022/06/05 08:45:04;;;;;;;6.07;5.50;;;22.10;99.90;;;;;;5055052;28;20164;-71
2022/06/05 08:47:36;;;;;;;6.18;5.03;;;22.00;99.90;;;;;;5053627;28;20171;-71
2022/06/05 08:50:17;;;;;;;5.57;5.38;;;22.00;99.90;;;;;;5054981;28;20195;-71
2022/06/05 08:52:57;;;;;;;5.70;5.30;;;21.90;99.90;;;;;;5054536;28;20211;-71
2022/06/05 08:55:38;;;;;;;5.97;5.65;;;21.80;99.90;;;;;;5053752;28;20516;-71
2022/06/05 08:58:08;;;;;;;5.40;5.10;;;21.70;99.90;;;;;;5054678;28;20168;-71
2022/06/05 09:00:46;;;;;;;5.80;5.45;;;21.50;99.90;;;;;;5054658;28;20245;-71
2022/06/05 09:03:22;;;;;;;5.80;5.50;;;21.30;99.90;;;;;;5053337;28;20196;-72
2022/06/05 09:05:51;;;;;;;5.90;5.50;;;21.30;99.90;;;;;;5054490;28;20176;-71
2022/06/05 09:08:20;;;;;;;5.50;5.20;;;21.20;99.90;;;;;;5053427;28;20175;-71
2022/06/05 09:10:47;;;;;;;6.40;5.85;;;21.10;99.90;;;;;;5052630;28;20177;-71
2022/06/05 09:13:33;;;;;;;6.50;5.68;;;21.10;99.90;;;;;;5053649;28;20226;-71
2022/06/05 09:16:09;;;;;;;6.32;6.03;;;21.00;99.90;;;;;;5054119;28;20175;-71
2022/06/05 09:18:37;;;;;;;6.35;5.95;;;20.90;99.90;;;;;;5054114;28;20187;-71
2022/06/05 09:21:10;;;;;;;6.82;6.43;;;20.80;99.90;;;;;;5054190;28;20233;-71
2022/06/05 09:23:41;;;;;;;6.80;6.28;;;20.50;99.90;;;;;;5052803;28;20176;-71
2022/06/05 09:26:13;;;;;;;6.10;5.65;;;20.40;99.90;;;;;;5054147;28;20180;-71
2022/06/05 09:29:04;;;;;;;6.70;6.20;;;20.40;99.90;;;;;;5054233;28;20168;-71
2022/06/05 09:31:41;;;;;;;7.43;6.82;;;20.30;99.90;;;;;;5053853;28;20160;-71
2022/06/05 09:34:19;;;;;;;7.05;6.45;;;20.30;99.90;;;;;;5054011;28;20653;-72
2022/06/05 09:36:55;;;;;;;7.78;7.25;;;20.20;99.90;;;;;;5053919;28;20203;-71
2022/06/05 09:39:30;;;;;;;8.57;7.78;;;20.00;99.90;;;;;;5053876;28;20161;-72
2022/06/05 10:00:42;;;;;;;12.63;10.25;;;18.80;99.90;;;;;;5111121;27;20911;-71
2022/06/05 10:03:14;;;;;;;11.38;10.48;;;18.40;99.90;;;;;;5090853;28;20213;-71
2022/06/05 10:05:45;;;;;;;13.23;11.98;;;18.50;99.90;;;;;;5090804;28;20171;-71
2022/06/05 10:08:21;;;;;;;11.18;10.27;;;18.70;99.90;;;;;;5090758;28;20167;-71
2022/06/05 10:10:51;;;;;;;12.23;11.23;;;18.90;99.90;;;;;;5072387;28;20658;-71
2022/06/05 10:13:35;;;;;;;11.52;10.68;;;18.90;99.90;;;;;;5090671;28;20517;-71
2022/06/05 10:16:10;;;;;;;11.27;10.40;;;18.90;99.90;;;;;;5090647;28;20178;-71
2022/06/05 10:19:02;;;;;;;10.38;9.57;;;18.80;99.90;;;;;;5090490;28;20274;-71
2022/06/05 10:21:36;;;;;;;10.05;9.30;;;18.90;99.90;;;;;;5090482;28;20171;-70
2022/06/05 10:24:14;;;;;;;9.88;9.20;;;19.00;99.90;;;;;;5090436;28;20170;-71
2022/06/05 10:26:47;;;;;;;9.80;9.00;;;18.70;99.90;;;;;;5090386;28;20164;-71
2022/06/05 10:29:25;;;;;;;10.40;9.60;;;19.10;99.90;;;;;;5090345;28;20167;-71
2022/06/05 10:32:07;;;;;;;11.70;10.70;;;19.10;99.90;;;;;;5090286;28;20706;-71
2022/06/05 10:34:47;;;;;;;9.85;9.23;;;19.20;99.90;;;;;;5072106;28;20178;-71
2022/06/05 10:37:46;;;;;;;10.82;10.02;;;19.10;99.90;;;;;;5090191;28;20212;-71
2022/06/05 10:40:28;;;;;;;10.23;9.52;;;19.10;99.90;;;;;;5090055;28;20191;-71
2022/06/05 10:43:20;;;;;;;9.82;9.23;;;19.20;99.90;;;;;;5090101;28;20159;-71
2022/06/05 10:46:05;;;;;;;9.95;9.25;;;19.30;99.90;;;;;;5082875;28;20179;-71
2022/06/05 10:49:06;;;;;;;9.90;9.02;;;19.40;99.90;;;;;;5069694;28;20203;-71
2022/06/05 10:51:56;;;;;;;9.10;8.48;;;19.50;99.90;;;;;;5047377;28;20183;-71
2022/06/05 10:54:38;;;;;;;9.52;8.85;;;19.60;99.90;;;;;;5069623;28;20179;-71
2022/06/05 10:57:15;;;;;;;9.90;9.20;;;19.70;99.90;;;;;;5069508;28;20172;-71
2022/06/05 11:00:18;;;;;;;10.18;9.48;;;19.70;99.90;;;;;;5056239;28;20215;-71
2022/06/05 11:02:58;;;;;;;10.15;9.45;;;19.70;99.90;;;;;;5007758;28;20233;-71
2022/06/05 11:05:43;;;;;;;10.13;9.48;;;19.80;99.90;;;;;;5045628;28;20212;-71
2022/06/05 11:08:17;;;;;;;10.77;9.95;;;19.80;99.90;;;;;;5049479;28;20164;-71
2022/06/05 11:13:45;;;;;;;9.63;9.02;;;19.80;99.90;;;;;;5036168;28;20196;-71
2022/06/05 11:17:00;;;;;;;10.05;9.27;;;19.70;99.90;;;;;;5036085;28;20200;-71
2022/06/05 11:19:41;;;;;;;10.43;9.70;;;19.70;99.90;;;;;;5031793;28;20741;-71
2022/06/05 11:22:12;;;;;;;10.25;9.32;;;19.60;99.90;;;;;;5018195;28;20165;-71
2022/06/05 11:24:48;;;;;;;10.43;9.68;;;19.60;99.90;;;;;;5035883;28;20638;-71
2022/06/05 11:27:30;;;;;;;12.38;9.10;;;19.50;99.90;;;;;;5035829;28;20179;-71
2022/06/05 11:30:03;;;;;;;11.13;10.18;;;19.50;99.90;;;;;;5017993;28;20173;-71
2022/06/05 11:32:47;;;;;;;10.75;9.88;;;19.60;99.90;;;;;;5035797;28;20557;-71
2022/06/05 11:35:36;;;;;;;9.88;9.10;;;19.90;99.90;;;;;;5035793;28;20165;-71
2022/06/05 11:38:29;;;;;;;10.25;9.43;;;20.40;99.90;;;;;;5035570;28;20200;-71
2022/06/05 11:41:26;;;;;;;8.93;8.35;;;20.80;99.90;;;;;;5035547;28;20185;-71
2022/06/05 11:44:21;;;;;;;9.15;8.40;;;21.20;99.90;;;;;;5015648;28;20255;-71
2022/06/05 11:46:52;;;;;;;8.30;7.80;;;21.50;99.90;;;;;;5035400;28;20185;-71
2022/06/05 11:49:27;;;;;;;9.13;8.38;;;21.70;99.90;;;;;;5035355;28;20180;-71
2022/06/05 11:52:17;;;;;;;8.00;7.60;;;22.00;99.90;;;;;;5035404;28;20176;-71
2022/06/05 11:55:04;;;;;;;7.93;7.43;;;22.30;99.90;;;;;;5035237;28;20638;-71
2022/06/05 11:57:38;;;;;;;8.05;7.32;;;22.60;99.90;;;;;;5035193;28;20169;-71
2022/06/05 12:00:15;;;;;;;8.35;7.82;;;22.90;99.90;;;;;;5035037;28;20212;-71
2022/06/05 12:02:59;;;;;;;8.45;7.80;;;23.10;99.90;;;;;;5035193;28;20169;-71
2022/06/05 12:05:48;;;;;;;7.80;7.30;;;23.20;99.90;;;;;;5035063;28;20195;-71
2022/06/05 12:08:43;;;;;;;9.05;8.40;;;23.00;99.90;;;;;;5035108;28;20165;-71
2022/06/05 12:11:23;;;;;;;7.53;7.13;;;22.90;99.90;;;;;;5029388;28;20185;-71
2022/06/05 12:14:32;;;;;;;7.68;6.78;;;23.00;99.90;;;;;;5034990;28;20214;-71
2022/06/05 12:17:04;;;;;;;7.80;7.15;;;22.90;99.90;;;;;;5034955;28;20157;-71
2022/06/05 12:19:41;;;;;;;7.60;6.90;;;22.90;99.90;;;;;;5034750;28;20200;-71
2022/06/05 12:22:15;;;;;;;7.28;6.60;;;22.90;99.90;;;;;;5033775;28;20161;-71
2022/06/05 12:25:23;;;;;;;7.75;7.00;;;23.00;99.90;;;;;;5017016;28;20200;-71
2022/06/05 12:27:57;;;;;;;6.95;6.45;;;23.10;99.90;;;;;;5016922;28;20200;-71
2022/06/05 12:30:42;;;;;;;7.55;6.95;;;23.20;99.90;;;;;;5034627;28;20176;-71
2022/06/05 12:33:10;;;;;;;7.07;6.65;;;23.10;99.90;;;;;;5016744;28;20218;-71
2022/06/05 12:35:40;;;;;;;7.05;6.63;;;23.00;99.90;;;;;;5034441;28;20698;-72
2022/06/05 12:38:24;;;;;;;7.38;6.93;;;23.00;99.90;;;;;;5034383;28;20165;-71
2022/06/05 12:41:15;;;;;;;6.60;6.30;;;22.90;99.90;;;;;;5034377;28;20184;-71
2022/06/05 12:44:18;;;;;;;6.75;6.38;;;22.80;99.90;;;;;;5034425;28;20527;-71
2022/06/05 12:47:06;;;;;;;7.30;6.90;;;22.50;99.90;;;;;;5016445;28;20197;-71
2022/06/05 12:49:41;;;;;;;7.05;6.45;;;22.30;99.90;;;;;;5016518;28;20696;-71
2022/06/05 12:52:11;;;;;;;8.10;7.63;;;22.20;99.90;;;;;;5016480;28;20534;-71
2022/06/05 12:54:47;;;;;;;7.55;7.05;;;22.00;99.90;;;;;;5034372;28;20165;-71
2022/06/05 12:57:24;;;;;;;7.22;6.63;;;22.00;99.90;;;;;;5034029;28;20169;-71
2022/06/05 13:00:17;;;;;;;6.85;6.55;;;21.80;99.90;;;;;;5041372;28;20220;-71
2022/06/05 13:03:01;;;;;;;7.35;6.85;;;21.70;99.90;;;;;;5045816;28;20230;-71
2022/06/05 13:05:47;;;;;;;7.30;6.90;;;21.70;99.90;;;;;;5053937;28;20530;-71
2022/06/05 13:08:45;;;;;;;7.10;6.68;;;21.80;99.90;;;;;;5052605;28;20687;-71
2022/06/05 13:11:29;;;;;;;6.95;6.55;;;21.70;99.90;;;;;;5033020;28;20184;-71
2022/06/05 13:14:40;;;;;;;7.15;6.70;;;21.70;99.90;;;;;;5053763;28;20191;-71
2022/06/05 13:17:21;;;;;;;6.35;6.05;;;21.70;99.90;;;;;;5045790;28;20663;-71
2022/06/05 13:20:02;;;;;;;7.13;6.72;;;21.90;99.90;;;;;;5053654;28;20265;-71
2022/06/05 13:22:32;;;;;;;6.53;6.13;;;22.00;99.90;;;;;;5053612;28;20164;-71
2022/06/05 13:25:18;;;;;;;6.30;5.78;;;22.10;99.90;;;;;;5053639;28;20192;-71
2022/06/05 13:28:31;;;;;;;6.38;6.07;;;22.10;99.90;;;;;;5053563;28;20165;-71
2022/06/05 13:31:29;;;;;;;6.70;6.30;;;21.90;99.90;;;;;;4992130;28;20261;-71
2022/06/05 13:34:05;;;;;;;6.40;6.00;;;21.60;99.90;;;;;;5032553;28;20275;-71
2022/06/05 13:36:49;;;;;;;7.68;6.53;;;21.60;99.90;;;;;;5053509;28;20168;-71
2022/06/05 13:39:25;;;;;;;7.40;6.80;;;21.60;99.90;;;;;;5053333;28;20199;-71
2022/06/05 13:41:56;;;;;;;6.93;6.50;;;21.60;99.90;;;;;;5053393;28;20191;-71
2022/06/05 13:44:27;;;;;;;6.72;6.22;;;21.70;99.90;;;;;;5053323;28;20168;-71
2022/06/05 13:47:15;;;;;;;6.65;6.25;;;21.60;99.90;;;;;;5053234;28;20180;-71
2022/06/05 13:50:02;;;;;;;7.03;6.63;;;21.40;99.90;;;;;;5053251;28;20242;-71
2022/06/05 13:52:28;;;;;;;7.75;6.38;;;21.10;99.90;;;;;;5051824;28;20247;-71
2022/06/05 13:55:09;;;;;;;6.90;6.32;;;20.80;99.90;;;;;;5053214;28;20168;-71
2022/06/05 13:57:40;;;;;;;6.20;5.90;;;20.60;99.90;;;;;;5053294;28;20184;-71
2022/06/05 14:00:27;;;;;;;7.18;6.53;;;20.50;99.90;;;;;;5051899;28;20220;-71
2022/06/05 14:03:01;;;;;;;7.47;7.03;;;20.50;99.90;;;;;;5053152;28;20165;-71
2022/06/05 14:05:51;;;;;;;7.70;6.93;;;20.60;99.90;;;;;;5051779;28;20243;-71
2022/06/05 14:08:57;;;;;;;8.70;8.00;;;20.80;99.90;;;;;;5053015;28;20771;-72
2022/06/05 14:11:33;;;;;;;7.35;6.95;;;21.00;99.90;;;;;;5030671;28;20230;-71
2022/06/05 14:14:00;;;;;;;8.32;7.55;;;21.10;99.90;;;;;;5053074;28;20172;-71
2022/06/05 14:16:30;;;;;;;7.90;7.30;;;21.10;99.90;;;;;;5052957;28;20306;-71
2022/06/05 14:18:59;;;;;;;8.25;7.75;;;21.20;99.90;;;;;;5051616;28;20203;-71
2022/06/05 14:21:31;;;;;;;7.20;6.80;;;21.10;99.90;;;;;;5052918;28;20173;-71
2022/06/05 14:23:57;;;;;;;7.65;7.25;;;21.10;99.90;;;;;;5051684;28;20177;-71
2022/06/05 14:26:45;;;;;;;7.78;7.32;;;21.10;99.90;;;;;;5051658;28;20227;-71
2022/06/05 14:29:37;;;;;;;7.43;7.03;;;21.10;99.90;;;;;;5052913;28;20187;-71
2022/06/05 14:32:28;;;;;;;6.60;6.30;;;21.10;99.90;;;;;;5052860;28;20175;-71
2022/06/05 14:35:20;;;;;;;7.50;7.00;;;21.20;99.90;;;;;;5052887;28;20652;-71
2022/06/05 14:37:59;;;;;;;9.35;6.50;;;21.40;99.90;;;;;;5051498;28;20263;-71
2022/06/05 14:40:51;;;;;;;6.90;6.43;;;21.60;99.90;;;;;;5052711;28;20204;-71
2022/06/05 14:43:44;;;;;;;6.90;6.50;;;21.80;99.90;;;;;;5052790;28;20211;-71
2022/06/05 14:46:16;;;;;;;6.78;6.38;;;22.00;99.90;;;;;;5054665;28;20195;-71
2022/06/05 14:48:52;;;;;;;7.43;6.82;;;22.00;99.90;;;;;;5055261;28;20626;-71
2022/06/05 14:51:43;;;;;;;9.05;7.40;;;22.00;99.90;;;;;;5056474;28;20655;-71
2022/06/05 14:57:51;;;;;;;8.25;7.75;;;21.90;99.90;;;;;;5056435;28;20217;-71
2022/06/05 15:00:07;;;;;;;7.60;7.10;;;21.50;99.90;;;;;;5040697;28;20235;-71
2022/06/05 15:02:43;;;;;;;8.63;8.02;;;21.40;99.90;;;;;;5036287;28;20192;-71
2022/06/05 15:05:14;;;;;;;8.38;7.88;;;21.30;99.90;;;;;;5036283;28;20168;-71
2022/06/05 15:08:17;;;;;;;8.05;7.55;;;21.40;99.90;;;;;;5036196;28;20299;-71
2022/06/05 15:10:48;;;;;;;7.90;7.40;;;21.40;99.90;;;;;;5035695;28;20184;-71
2022/06/05 15:13:47;;;;;;;8.35;7.65;;;21.30;99.90;;;;;;5036103;28;20618;-71
2022/06/05 15:16:34;;;;;;;8.10;7.60;;;21.30;99.90;;;;;;5015297;28;20181;-71
2022/06/05 15:19:00;;;;;;;8.82;8.23;;;21.30;99.90;;;;;;5035859;28;20231;-71
2022/06/05 15:21:50;;;;;;;8.38;7.60;;;21.40;99.90;;;;;;5035945;28;20269;-71
2022/06/05 15:24:25;;;;;;;7.70;7.13;;;21.30;99.90;;;;;;5018111;28;20165;-71
2022/06/05 15:27:15;;;;;;;8.07;7.50;;;21.40;99.90;;;;;;5035865;28;20204;-71
2022/06/05 15:29:52;;;;;;;7.82;7.43;;;21.40;99.90;;;;;;5035835;28;20196;-71
2022/06/05 15:32:31;;;;;;;8.27;7.47;;;21.30;99.90;;;;;;5035817;28;20165;-71
2022/06/05 15:35:20;;;;;;;8.18;7.63;;;21.30;99.90;;;;;;5035842;28;20169;-71
2022/06/05 15:38:06;;;;;;;9.02;8.27;;;21.20;99.90;;;;;;5035562;28;20527;-71
2022/06/05 15:40:54;;;;;;;8.07;7.43;;;21.10;99.90;;;;;;5017811;28;20224;-71
2022/06/05 15:43:49;;;;;;;9.00;8.40;;;20.90;99.90;;;;;;5035555;28;20171;-71
2022/06/05 15:46:39;;;;;;;9.27;8.68;;;20.70;99.90;;;;;;5017685;28;20197;-71
2022/06/05 15:49:20;;;;;;;4.07;3.83;;;20.50;99.90;;;;;;5035430;28;20169;-71
2022/06/05 15:52:13;;;;;;;3.72;2.85;;;20.10;99.90;;;;;;5035424;28;20183;-71
2022/06/05 16:21:33;;;;;;;1.80;1.70;;;19.00;99.90;;;;;;5090870;28;20575;-71
2022/06/05 16:24:10;;;;;;;1.85;1.60;;;17.50;99.90;;;;;;5090899;28;20179;-71
2022/06/05 16:27:02;;;;;;;1.85;1.75;;;17.50;99.90;;;;;;5090859;28;20171;-71
2022/06/05 16:29:31;;;;;;;2.60;2.40;;;17.50;99.90;;;;;;5090757;28;20250;-71
2022/06/05 16:32:02;;;;;;;2.65;2.50;;;17.50;99.90;;;;;;5090659;28;20172;-72
2022/06/05 16:40:31;;;;;;;3.10;3.00;;;17.60;99.90;;;;;;5090541;28;20282;-71
2022/06/05 16:43:19;;;;;;;2.92;2.83;;;17.70;99.90;;;;;;5089278;28;20521;-71
2022/06/05 16:46:00;;;;;;;2.95;2.75;;;17.80;99.90;;;;;;5089053;28;20167;-72
2022/06/05 16:48:29;;;;;;;3.42;3.15;;;17.80;99.90;;;;;;5090294;28;20166;-71
2022/06/05 16:50:55;;;;;;;2.80;2.70;;;17.70;99.90;;;;;;5090293;28;20168;-71
2022/06/05 16:53:29;;;;;;;3.53;3.33;;;17.80;99.90;;;;;;5090318;28;20258;-71
2022/06/05 16:55:57;;;;;;;3.65;3.45;;;17.90;99.90;;;;;;5089008;28;20628;-71
2022/06/05 16:58:33;;;;;;;3.33;2.83;;;17.90;99.90;;;;;;5090217;28;20628;-71
2022/06/05 17:01:13;;;;;;;3.47;3.28;;;18.00;99.90;;;;;;5089943;28;20213;-71
2022/06/05 17:03:48;;;;;;;4.90;3.03;;;17.90;99.90;;;;;;5090107;28;20167;-71
2022/06/05 17:06:36;;;;;;;3.20;3.10;;;17.90;99.90;;;;;;5088763;28;20171;-71
2022/06/05 17:09:25;;;;;;;3.67;3.53;;;17.90;99.90;;;;;;5090015;28;20168;-71
2022/06/05 17:11:56;;;;;;;4.43;4.05;;;18.00;99.90;;;;;;5088602;28;20164;-71
2022/06/05 17:14:59;;;;;;;6.05;5.70;;;18.00;99.90;;;;;;5089890;28;20252;-71
2022/06/05 17:17:35;;;;;;;5.05;4.65;;;17.90;99.90;;;;;;5089738;28;20163;-71
2022/06/05 17:20:11;;;;;;;6.70;6.30;;;17.80;99.90;;;;;;5089742;28;20242;-71
2022/06/05 17:22:42;;;;;;;8.07;7.40;;;17.80;99.90;;;;;;5089756;28;20240;-71
2022/06/05 17:25:16;;;;;;;7.65;7.15;;;17.80;99.90;;;;;;5089662;28;20184;-71
2022/06/05 17:28:24;;;;;;;7.20;6.70;;;17.70;99.90;;;;;;5089625;28;20167;-71
2022/06/05 17:31:13;;;;;;;8.05;7.55;;;17.80;99.90;;;;;;5085086;28;20279;-71
2022/06/05 17:34:12;;;;;;;7.57;7.00;;;17.80;99.90;;;;;;5076075;28;20172;-71
2022/06/05 17:37:02;;;;;;;8.60;7.80;;;17.70;99.90;;;;;;5075939;28;20164;-71
2022/06/05 17:40:08;;;;;;;8.45;7.70;;;17.60;99.90;;;;;;5075915;28;20523;-71
